Time;durP1;ratioP1;P1;durP2;ratioP2;P2;SDS_P1;SDS_P2;PMS_P1;PMS_P2;Temp;Humidity;BMP_temperature;BMP_pressure;BME280_temperature;BME280_humidity;BME280_pressure;Samples;Min_cycle;Max_cycle;Signal;HPM_P1;HPM_P2
2021/03/10 00:00:19;;;;;;;36.43;21.37;;;6.60;99.90;;;;;;5040972;28;20452;-72
2021/03/10 00:03:04;;;;;;;36.87;22.83;;;6.70;99.90;;;;;;5045027;28;20513;-70
2021/03/10 00:05:49;;;;;;;36.00;23.73;;;6.50;99.90;;;;;;5042983;28;20451;-71
2021/03/10 00:08:34;;;;;;;33.77;21.20;;;6.50;99.90;;;;;;5043844;28;20831;-71
2021/03/10 00:11:20;;;;;;;40.80;21.93;;;6.50;99.90;;;;;;5043359;28;20481;-70
2021/03/10 00:14:05;;;;;;;39.30;23.57;;;6.50;99.90;;;;;;5044017;28;20518;-71
2021/03/10 00:16:50;;;;;;;38.10;22.67;;;6.50;99.90;;;;;;5044063;28;20872;-71
2021/03/10 00:19:35;;;;;;;38.13;23.13;;;6.40;99.90;;;;;;5043780;28;20455;-71
2021/03/10 00:22:20;;;;;;;39.93;24.80;;;6.30;99.90;;;;;;5051278;28;20447;-70
2021/03/10 00:25:07;;;;;;;34.87;22.70;;;6.30;99.90;;;;;;5052575;28;20532;-71
2021/03/10 00:27:53;;;;;;;36.80;22.10;;;6.30;99.90;;;;;;5043197;28;20693;-71
2021/03/10 00:30:38;;;;;;;43.37;25.03;;;6.30;99.90;;;;;;5042625;28;20451;-70
2021/03/10 00:33:23;;;;;;;38.07;22.87;;;6.30;99.90;;;;;;5047474;28;21634;-71
2021/03/10 00:36:09;;;;;;;42.10;24.60;;;6.10;99.90;;;;;;5050504;28;20470;-71
2021/03/10 00:38:54;;;;;;;41.00;23.70;;;6.20;99.90;;;;;;5051407;28;20544;-71
2021/03/10 00:41:39;;;;;;;39.10;24.37;;;6.30;99.90;;;;;;5045347;28;20455;-71
2021/03/10 00:44:25;;;;;;;38.40;23.23;;;6.20;99.90;;;;;;5047637;28;22106;-72
2021/03/10 00:47:10;;;;;;;40.77;24.23;;;6.30;99.90;;;;;;5045201;28;20554;-71
2021/03/10 00:49:57;;;;;;;37.70;23.87;;;6.30;99.90;;;;;;5045480;28;20505;-71
2021/03/10 00:52:42;;;;;;;42.50;24.60;;;6.20;99.90;;;;;;5042279;28;20957;-72
2021/03/10 00:55:28;;;;;;;36.77;24.07;;;6.20;99.90;;;;;;5048225;28;20469;-71
2021/03/10 00:58:13;;;;;;;47.23;25.80;;;6.20;99.90;;;;;;5046027;28;20438;-71
2021/03/10 01:00:59;;;;;;;41.77;25.93;;;6.10;99.90;;;;;;5044334;28;21010;-71
2021/03/10 01:03:44;;;;;;;41.37;23.87;;;6.10;99.90;;;;;;5046557;28;20451;-71
2021/03/10 01:06:30;;;;;;;44.37;24.23;;;6.20;99.90;;;;;;5038490;28;20439;-71
2021/03/10 01:09:15;;;;;;;40.87;25.27;;;6.20;99.90;;;;;;5047143;28;20450;-70
2021/03/10 01:12:00;;;;;;;40.93;24.70;;;6.20;99.90;;;;;;5046738;28;20443;-70
2021/03/10 01:14:45;;;;;;;39.67;24.37;;;6.20;99.90;;;;;;5049453;28;20451;-71
2021/03/10 01:17:31;;;;;;;40.00;24.90;;;6.20;99.90;;;;;;5048121;28;20896;-71
2021/03/10 01:20:18;;;;;;;46.07;27.40;;;6.10;99.90;;;;;;5050811;28;20490;-71
2021/03/10 01:23:03;;;;;;;41.77;26.17;;;6.10;99.90;;;;;;5045491;28;20430;-71
2021/03/10 01:25:48;;;;;;;45.70;27.57;;;6.10;99.90;;;;;;5044863;28;20455;-71
2021/03/10 01:28:34;;;;;;;48.13;29.13;;;6.10;99.90;;;;;;5046770;28;20526;-72
2021/03/10 01:31:18;;;;;;;47.10;25.83;;;6.10;99.90;;;;;;5046859;28;20460;-71
2021/03/10 01:34:04;;;;;;;43.73;25.93;;;6.10;99.90;;;;;;5048373;28;20834;-71
2021/03/10 01:36:49;;;;;;;44.80;25.63;;;6.10;99.90;;;;;;5047257;28;20808;-71
2021/03/10 01:39:36;;;;;;;42.40;26.03;;;6.00;99.90;;;;;;5046030;28;20434;-71
2021/03/10 01:42:22;;;;;;;41.40;25.33;;;6.00;99.90;;;;;;5047771;28;20808;-71
2021/03/10 01:45:09;;;;;;;48.80;27.23;;;6.10;99.90;;;;;;5047073;28;20451;-71
2021/03/10 01:47:54;;;;;;;44.40;26.57;;;6.10;99.90;;;;;;5047369;28;20469;-71
2021/03/10 01:50:40;;;;;;;53.50;26.10;;;6.20;99.90;;;;;;5045857;28;20813;-71
2021/03/10 01:53:25;;;;;;;44.80;27.00;;;6.20;99.90;;;;;;5051560;28;20513;-72
2021/03/10 01:56:12;;;;;;;49.03;27.63;;;6.10;99.90;;;;;;5047334;28;20492;-71
2021/03/10 01:58:57;;;;;;;39.63;26.30;;;6.00;99.90;;;;;;5047737;28;20433;-72
2021/03/10 02:01:42;;;;;;;51.93;29.47;;;6.00;99.90;;;;;;5047903;28;20466;-71
2021/03/10 02:04:28;;;;;;;43.97;28.47;;;5.90;99.90;;;;;;5043469;28;20486;-71
2021/03/10 02:07:20;;;;;;;41.83;26.50;;;5.80;99.90;;;;;;5046046;28;20463;-71
2021/03/10 02:10:12;;;;;;;47.83;29.05;;;5.80;99.90;;;;;;5047833;28;20421;-72
2021/03/10 02:13:04;;;;;;;52.30;27.73;;;5.80;99.90;;;;;;5047086;28;20205;-72
2021/03/10 02:15:56;;;;;;;51.10;28.93;;;5.80;99.90;;;;;;5053804;28;20472;-72
2021/03/10 02:18:46;;;;;;;48.97;28.67;;;5.80;99.90;;;;;;5051598;28;20413;-72
2021/03/10 02:21:42;;;;;;;48.47;29.33;;;5.70;99.90;;;;;;5048711;28;20443;-71
2021/03/10 02:24:46;;;;;;;47.40;28.60;;;5.70;99.90;;;;;;5041676;28;20320;-69
2021/03/10 02:27:45;;;;;;;51.03;28.67;;;5.70;99.90;;;;;;5040775;28;20810;-72
2021/03/10 02:30:34;;;;;;;47.03;29.65;;;5.80;99.90;;;;;;5047059;28;20228;-71
2021/03/10 02:33:22;;;;;;;52.63;30.10;;;5.70;99.90;;;;;;5053137;28;20208;-71
2021/03/10 02:36:10;;;;;;;50.33;29.27;;;5.70;99.90;;;;;;5046351;28;20240;-71
2021/03/10 02:38:59;;;;;;;43.25;27.42;;;5.70;99.90;;;;;;5044661;28;20207;-71
2021/03/10 02:41:46;;;;;;;41.60;26.38;;;5.80;99.90;;;;;;5046619;28;20197;-71
2021/03/10 02:44:32;;;;;;;48.47;28.57;;;5.80;99.90;;;;;;5041859;28;20347;-71
2021/03/10 02:47:18;;;;;;;45.75;28.92;;;5.80;99.90;;;;;;5045616;28;21349;-71
2021/03/10 02:50:06;;;;;;;53.13;28.60;;;5.80;99.90;;;;;;5053128;28;20209;-71
2021/03/10 02:52:51;;;;;;;50.60;29.30;;;5.90;99.90;;;;;;5045550;28;20447;-71
2021/03/10 02:55:39;;;;;;;48.90;28.07;;;5.80;99.90;;;;;;5046021;28;20430;-72
2021/03/10 02:58:24;;;;;;;45.27;28.80;;;5.80;99.90;;;;;;5045585;28;20451;-71
2021/03/10 03:01:11;;;;;;;42.57;25.40;;;5.70;99.90;;;;;;5046345;28;21078;-71
2021/03/10 03:03:56;;;;;;;43.03;27.45;;;5.70;99.90;;;;;;5042232;28;20497;-72
2021/03/10 03:06:41;;;;;;;51.07;28.80;;;5.70;99.90;;;;;;5042191;28;20225;-71
2021/03/10 03:09:26;;;;;;;47.40;27.52;;;5.70;99.90;;;;;;5038207;28;20454;-71
2021/03/10 03:12:13;;;;;;;51.25;31.10;;;5.80;99.90;;;;;;5046777;28;20816;-72
2021/03/10 03:14:59;;;;;;;45.47;29.00;;;5.80;99.90;;;;;;5045512;28;20251;-70
2021/03/10 03:17:46;;;;;;;46.20;28.50;;;5.80;99.90;;;;;;5041517;28;20514;-71
2021/03/10 03:20:32;;;;;;;45.00;28.57;;;5.90;99.90;;;;;;5042954;28;20430;-70
2021/03/10 03:23:19;;;;;;;48.40;28.23;;;6.00;99.90;;;;;;5042072;28;20470;-71
2021/03/10 03:26:05;;;;;;;45.93;27.20;;;6.00;99.90;;;;;;5043651;28;20489;-70
2021/03/10 03:28:51;;;;;;;48.80;29.50;;;6.10;99.90;;;;;;5043028;28;20475;-70
2021/03/10 03:31:37;;;;;;;45.77;27.60;;;6.10;99.90;;;;;;5045421;28;21342;-71
2021/03/10 03:34:24;;;;;;;51.58;31.98;;;6.00;99.90;;;;;;5044122;28;20446;-72
2021/03/10 03:37:09;;;;;;;46.07;28.57;;;5.90;99.90;;;;;;5046633;28;20316;-71
2021/03/10 03:39:55;;;;;;;48.83;28.80;;;5.80;99.90;;;;;;5041225;28;20454;-71
2021/03/10 03:42:40;;;;;;;44.72;28.35;;;5.80;99.90;;;;;;5043574;28;20483;-71
2021/03/10 03:45:26;;;;;;;44.67;27.17;;;5.80;99.90;;;;;;5042888;28;20228;-71
2021/03/10 03:48:12;;;;;;;45.83;28.63;;;5.70;99.90;;;;;;5051178;28;20271;-71
2021/03/10 03:50:58;;;;;;;45.30;28.30;;;5.80;99.90;;;;;;5047023;28;20828;-71
2021/03/10 03:53:43;;;;;;;43.28;28.75;;;5.70;99.90;;;;;;5045020;28;20497;-71
2021/03/10 03:56:29;;;;;;;44.37;27.70;;;5.70;99.90;;;;;;5043921;28;20248;-71
2021/03/10 03:59:14;;;;;;;47.27;29.07;;;5.80;99.90;;;;;;5049278;28;20501;-71
2021/03/10 04:01:59;;;;;;;50.83;29.47;;;5.80;99.90;;;;;;5054120;28;20561;-71
2021/03/10 04:04:45;;;;;;;53.40;30.33;;;5.60;99.90;;;;;;5049452;28;20443;-71
2021/03/10 04:07:30;;;;;;;45.60;26.60;;;5.60;99.90;;;;;;5045805;28;20474;-71
2021/03/10 04:10:16;;;;;;;49.83;29.70;;;5.60;99.90;;;;;;5048429;28;20517;-71
2021/03/10 04:13:02;;;;;;;53.40;31.40;;;5.40;99.90;;;;;;5051474;28;20493;-69
2021/03/10 04:15:47;;;;;;;46.87;28.87;;;5.30;99.90;;;;;;5045145;28;20509;-70
2021/03/10 04:18:32;;;;;;;43.72;26.98;;;5.40;99.90;;;;;;5049150;28;20978;-71
2021/03/10 04:21:17;;;;;;;50.03;30.80;;;5.40;99.90;;;;;;5057729;28;20229;-71
2021/03/10 04:24:04;;;;;;;52.05;31.17;;;5.40;99.90;;;;;;5050395;28;20539;-71
2021/03/10 04:26:48;;;;;;;52.00;32.10;;;5.40;99.90;;;;;;5050006;28;20619;-69
2021/03/10 04:29:34;;;;;;;47.30;29.10;;;5.40;99.90;;;;;;5049206;28;20447;-72
2021/03/10 04:32:19;;;;;;;45.70;27.10;;;5.50;99.90;;;;;;5050699;28;20568;-72
2021/03/10 04:35:05;;;;;;;57.13;28.80;;;5.60;99.90;;;;;;5048933;28;20464;-71
2021/03/10 04:37:50;;;;;;;49.47;29.30;;;5.60;99.90;;;;;;5049234;28;20491;-71
2021/03/10 04:40:36;;;;;;;49.30;30.13;;;5.50;99.90;;;;;;5050128;28;20438;-72
2021/03/10 04:43:21;;;;;;;38.60;24.10;;;5.50;99.90;;;;;;5047884;28;20514;-71
2021/03/10 04:46:06;;;;;;;41.97;27.17;;;5.50;99.90;;;;;;5050144;28;20816;-71
2021/03/10 04:48:52;;;;;;;48.73;28.93;;;5.40;99.90;;;;;;5050025;28;21033;-71
2021/03/10 04:51:37;;;;;;;48.30;27.77;;;5.30;99.90;;;;;;5048967;28;20515;-72
2021/03/10 04:54:22;;;;;;;46.83;28.40;;;5.30;99.90;;;;;;5049014;28;20482;-71
2021/03/10 04:57:08;;;;;;;49.27;27.13;;;5.30;99.90;;;;;;5049156;28;20464;-72
2021/03/10 04:59:53;;;;;;;46.75;29.33;;;5.20;99.90;;;;;;5048853;28;20447;-72
2021/03/10 05:02:39;;;;;;;47.40;29.37;;;5.10;99.90;;;;;;5044634;28;20274;-71
2021/03/10 05:05:24;;;;;;;49.27;28.50;;;5.10;99.90;;;;;;5048908;28;20447;-71
2021/03/10 05:08:10;;;;;;;48.88;29.55;;;5.00;99.90;;;;;;5046842;28;20503;-70
2021/03/10 05:10:56;;;;;;;50.33;30.30;;;4.90;99.90;;;;;;5045279;28;20259;-71
2021/03/10 05:13:41;;;;;;;47.70;28.83;;;4.80;99.90;;;;;;5042474;28;20577;-71
2021/03/10 05:16:26;;;;;;;47.40;28.40;;;4.70;99.90;;;;;;5045078;28;20311;-70
2021/03/10 05:19:11;;;;;;;47.13;27.17;;;4.70;99.90;;;;;;5048801;28;20422;-70
2021/03/10 05:21:56;;;;;;;45.97;28.33;;;4.70;99.90;;;;;;5044423;28;20839;-72
2021/03/10 05:24:41;;;;;;;46.08;26.80;;;4.70;99.90;;;;;;5042718;28;20566;-71
2021/03/10 05:27:30;;;;;;;48.78;28.20;;;4.60;99.90;;;;;;5041816;28;20689;-71
2021/03/10 05:30:18;;;;;;;42.65;28.15;;;4.60;99.90;;;;;;5047662;28;20213;-72
2021/03/10 05:33:03;;;;;;;47.45;28.95;;;4.70;99.90;;;;;;5048645;28;20207;-71
2021/03/10 05:35:48;;;;;;;42.25;25.73;;;4.70;99.90;;;;;;5048987;28;20647;-71
2021/03/10 05:38:34;;;;;;;47.05;26.65;;;4.80;99.90;;;;;;5042362;28;20221;-72
2021/03/10 05:41:18;;;;;;;42.40;25.97;;;4.80;99.90;;;;;;5042964;28;20259;-72
2021/03/10 05:44:04;;;;;;;46.97;27.33;;;4.70;99.90;;;;;;5058062;28;20443;-70
2021/03/10 05:46:50;;;;;;;46.58;28.10;;;4.70;99.90;;;;;;5047893;28;20260;-70
2021/03/10 05:49:35;;;;;;;48.78;29.30;;;4.70;99.90;;;;;;5050608;28;20255;-71
2021/03/10 05:52:22;;;;;;;48.05;27.65;;;4.60;99.90;;;;;;5052917;28;20208;-71
2021/03/10 05:55:09;;;;;;;46.08;26.50;;;4.60;99.90;;;;;;5048348;28;20366;-72
2021/03/10 05:57:54;;;;;;;43.40;27.17;;;4.70;99.90;;;;;;5041090;28;20628;-71
2021/03/10 06:00:43;;;;;;;44.55;27.10;;;4.80;99.90;;;;;;5047762;28;20205;-71
2021/03/10 06:03:30;;;;;;;45.83;26.23;;;4.90;99.90;;;;;;5047364;28;20300;-71
2021/03/10 06:06:15;;;;;;;38.28;24.60;;;4.90;99.90;;;;;;5051751;28;20275;-72
2021/03/10 06:09:10;;;;;;;47.85;27.92;;;5.00;99.90;;;;;;5054263;28;20221;-70
2021/03/10 06:11:56;;;;;;;43.13;27.05;;;5.00;99.90;;;;;;5048162;28;20245;-71
2021/03/10 06:14:41;;;;;;;51.78;28.88;;;4.90;99.90;;;;;;5048340;28;20240;-71
2021/03/10 06:17:26;;;;;;;46.72;27.83;;;4.90;99.90;;;;;;5049278;28;20286;-71
2021/03/10 06:20:23;;;;;;;43.40;27.85;;;4.70;99.90;;;;;;5047962;28;20208;-72
2021/03/10 06:23:14;;;;;;;45.28;29.17;;;4.50;99.90;;;;;;5048130;28;20293;-71
2021/03/10 06:25:59;;;;;;;49.67;29.95;;;4.60;99.90;;;;;;5046571;28;20212;-71
2021/03/10 06:28:45;;;;;;;46.17;27.60;;;4.60;99.90;;;;;;5042641;28;20585;-71
2021/03/10 06:31:34;;;;;;;56.13;31.15;;;4.70;99.90;;;;;;5046451;28;20204;-72
2021/03/10 06:34:20;;;;;;;50.20;30.25;;;4.70;99.90;;;;;;5045760;28;21006;-71
2021/03/10 06:37:06;;;;;;;54.92;31.92;;;4.90;99.90;;;;;;5045491;28;20588;-72
2021/03/10 06:39:51;;;;;;;46.50;27.80;;;5.00;99.90;;;;;;5046250;28;20801;-72
2021/03/10 06:42:36;;;;;;;46.85;29.50;;;5.10;99.90;;;;;;5044109;28;20467;-71
2021/03/10 06:45:29;;;;;;;49.92;28.48;;;5.10;99.90;;;;;;5042779;28;20198;-71
2021/03/10 06:48:19;;;;;;;47.53;29.10;;;5.20;99.90;;;;;;5048451;28;20689;-71
2021/03/10 06:51:13;;;;;;;59.25;32.08;;;5.30;99.90;;;;;;5049157;28;20465;-71
2021/03/10 06:53:59;;;;;;;49.97;29.57;;;5.40;99.90;;;;;;5043769;28;20228;-71
2021/03/10 06:56:44;;;;;;;47.67;29.10;;;5.50;99.90;;;;;;5047581;28;20491;-72
2021/03/10 06:59:39;;;;;;;47.60;28.17;;;5.60;99.90;;;;;;5046986;28;20824;-71
2021/03/10 07:02:26;;;;;;;46.93;29.27;;;5.70;99.90;;;;;;5046427;28;20733;-71
2021/03/10 07:05:11;;;;;;;51.50;31.40;;;5.70;99.90;;;;;;5045661;28;20454;-71
2021/03/10 07:07:57;;;;;;;47.35;29.58;;;5.80;99.90;;;;;;5047247;28;20454;-71
2021/03/10 07:10:43;;;;;;;51.83;31.80;;;5.90;99.90;;;;;;5048359;28;20204;-71
2021/03/10 07:13:29;;;;;;;46.03;30.97;;;6.00;99.90;;;;;;5045362;28;20293;-71
2021/03/10 07:16:14;;;;;;;49.83;28.73;;;6.00;99.90;;;;;;5048783;28;20549;-71
2021/03/10 07:19:01;;;;;;;56.03;31.90;;;6.00;99.90;;;;;;5048220;28;20426;-72
2021/03/10 07:21:50;;;;;;;50.30;31.20;;;6.10;99.90;;;;;;5046914;28;20464;-71
2021/03/10 07:24:40;;;;;;;48.97;32.60;;;6.10;99.90;;;;;;5045081;28;20426;-71
2021/03/10 07:27:32;;;;;;;69.67;36.70;;;6.20;99.90;;;;;;5045132;28;20478;-70
2021/03/10 07:30:18;;;;;;;51.13;32.00;;;6.30;99.90;;;;;;5050959;28;20470;-71
2021/03/10 07:33:07;;;;;;;57.77;34.63;;;6.30;99.90;;;;;;5050547;28;20869;-71
2021/03/10 07:35:53;;;;;;;59.83;38.13;;;6.40;99.90;;;;;;5052716;28;20557;-72
2021/03/10 07:38:40;;;;;;;58.70;37.10;;;6.40;99.90;;;;;;5050088;28;20443;-72
2021/03/10 07:41:36;;;;;;;62.10;37.90;;;6.50;99.90;;;;;;5051110;28;20231;-70
2021/03/10 07:44:24;;;;;;;59.20;37.50;;;6.50;99.90;;;;;;5051745;28;20560;-70
2021/03/10 07:47:10;;;;;;;69.80;38.60;;;6.50;99.90;;;;;;5050684;28;20975;-71
2021/03/10 07:50:00;;;;;;;58.23;37.63;;;6.60;99.90;;;;;;5063595;28;20445;-71
2021/03/10 07:52:55;;;;;;;56.07;35.30;;;6.70;99.90;;;;;;5062214;28;20539;-72
2021/03/10 07:55:45;;;;;;;63.63;39.00;;;6.80;99.90;;;;;;5044267;28;20517;-70
2021/03/10 07:58:31;;;;;;;55.60;35.87;;;6.80;99.90;;;;;;5049300;28;20443;-69
2021/03/10 08:01:17;;;;;;;57.27;35.30;;;6.90;99.90;;;;;;5057261;28;20458;-72
2021/03/10 08:04:13;;;;;;;63.40;37.30;;;6.80;99.90;;;;;;5051030;28;20797;-71
2021/03/10 08:06:58;;;;;;;58.27;35.77;;;6.80;99.90;;;;;;5046936;28;20685;-71
2021/03/10 08:09:50;;;;;;;62.10;36.87;;;6.90;99.90;;;;;;5044756;28;20497;-71
2021/03/10 08:12:37;;;;;;;64.27;40.00;;;7.10;99.90;;;;;;5051163;28;20451;-71
2021/03/10 08:15:23;;;;;;;64.50;36.70;;;7.20;99.90;;;;;;5049153;28;20462;-71
2021/03/10 08:18:09;;;;;;;57.57;34.97;;;7.30;99.90;;;;;;5052602;28;20458;-71
2021/03/10 08:20:55;;;;;;;61.47;37.40;;;7.40;99.90;;;;;;5050621;28;20450;-71
2021/03/10 08:23:41;;;;;;;58.57;34.40;;;7.50;99.90;;;;;;5051226;28;20443;-71
2021/03/10 08:26:26;;;;;;;58.73;34.27;;;7.50;99.90;;;;;;5049743;28;20474;-71
2021/03/10 08:29:11;;;;;;;57.07;34.60;;;7.60;99.90;;;;;;5051515;28;20510;-71
2021/03/10 08:31:58;;;;;;;53.00;31.70;;;7.70;99.90;;;;;;5044793;28;20441;-71
2021/03/10 08:34:44;;;;;;;53.07;31.57;;;7.80;99.90;;;;;;5045192;28;20480;-71
2021/03/10 08:37:29;;;;;;;49.77;31.27;;;7.90;99.90;;;;;;5046731;28;20460;-71
2021/03/10 08:40:19;;;;;;;55.10;32.87;;;7.90;99.90;;;;;;5048168;28;20463;-71
2021/03/10 08:43:04;;;;;;;51.97;30.93;;;8.00;99.90;;;;;;5042596;28;20451;-71
2021/03/10 08:45:49;;;;;;;54.93;31.13;;;8.00;99.90;;;;;;5044362;28;21252;-71
2021/03/10 08:48:35;;;;;;;49.90;32.07;;;8.00;99.90;;;;;;5044555;28;20444;-71
2021/03/10 08:51:21;;;;;;;50.67;31.60;;;8.00;99.90;;;;;;5057440;28;20459;-71
2021/03/10 08:54:06;;;;;;;51.40;29.87;;;8.10;99.90;;;;;;5050233;28;20421;-71
2021/03/10 08:56:51;;;;;;;56.70;30.07;;;8.10;99.90;;;;;;5049721;28;20755;-71
2021/03/10 08:59:37;;;;;;;42.77;27.30;;;7.90;99.90;;;;;;5051415;28;20612;-71
2021/03/10 09:02:28;;;;;;;46.60;30.50;;;7.80;99.90;;;;;;5046439;28;21157;-70
2021/03/10 09:05:13;;;;;;;49.27;30.17;;;8.00;99.90;;;;;;5043993;28;20951;-71
2021/03/10 09:08:00;;;;;;;47.97;32.65;;;8.10;99.90;;;;;;5042256;28;20558;-71
2021/03/10 09:10:47;;;;;;;47.43;29.30;;;8.20;99.90;;;;;;5043775;28;20224;-71
2021/03/10 09:13:32;;;;;;;48.80;29.80;;;8.30;99.90;;;;;;5048488;28;20426;-71
2021/03/10 09:16:17;;;;;;;44.43;28.40;;;8.30;99.90;;;;;;5042926;28;20463;-71
2021/03/10 09:19:02;;;;;;;42.87;28.33;;;8.30;99.90;;;;;;5046962;28;20815;-70
2021/03/10 09:21:48;;;;;;;44.47;28.60;;;8.30;99.90;;;;;;5046717;28;20425;-71
2021/03/10 09:24:34;;;;;;;43.10;28.27;;;8.30;99.90;;;;;;5049564;28;20430;-72
2021/03/10 09:27:21;;;;;;;47.90;27.17;;;8.40;99.90;;;;;;5048087;28;20446;-70
2021/03/10 09:30:10;;;;;;;46.87;26.47;;;8.50;99.90;;;;;;5048467;28;20493;-72
2021/03/10 09:32:55;;;;;;;39.70;24.80;;;8.60;99.90;;;;;;5037427;28;20930;-71
2021/03/10 09:35:40;;;;;;;37.10;26.30;;;8.60;99.90;;;;;;5049189;28;20871;-72
2021/03/10 09:38:27;;;;;;;35.33;23.90;;;8.60;99.90;;;;;;5047480;28;20421;-72
2021/03/10 09:41:14;;;;;;;43.47;26.57;;;8.60;99.90;;;;;;5048749;28;20422;-71
2021/03/10 09:44:08;;;;;;;41.60;25.47;;;8.60;99.90;;;;;;5045330;28;20413;-71
2021/03/10 09:46:53;;;;;;;43.43;25.60;;;8.70;99.90;;;;;;5040965;28;20433;-72
2021/03/10 09:49:47;;;;;;;41.00;25.00;;;8.70;99.90;;;;;;5050497;28;20551;-71
2021/03/10 09:52:35;;;;;;;36.83;22.67;;;8.80;99.90;;;;;;5043479;28;20487;-71
2021/03/10 09:55:22;;;;;;;37.50;22.73;;;8.90;99.90;;;;;;5054383;28;20428;-72
2021/03/10 09:58:09;;;;;;;34.43;23.33;;;9.00;99.90;;;;;;5046792;28;20831;-71
2021/03/10 10:00:59;;;;;;;35.73;23.87;;;9.10;99.90;;;;;;5042744;28;21009;-72
2021/03/10 10:03:45;;;;;;;29.87;19.60;;;9.10;99.90;;;;;;5042409;28;20893;-72
2021/03/10 10:06:30;;;;;;;39.60;25.83;;;9.20;99.90;;;;;;5041096;28;20450;-71
2021/03/10 10:09:15;;;;;;;39.77;24.40;;;9.20;99.90;;;;;;5047063;28;20833;-71
2021/03/10 10:12:00;;;;;;;32.03;21.73;;;9.20;99.90;;;;;;5035539;28;20546;-71
2021/03/10 10:14:46;;;;;;;31.03;21.77;;;9.10;99.90;;;;;;5053149;28;20446;-71
2021/03/10 10:17:31;;;;;;;36.40;23.37;;;9.10;99.90;;;;;;5045603;28;20583;-72
2021/03/10 10:20:18;;;;;;;39.97;23.60;;;9.10;99.90;;;;;;5051838;28;20486;-71
2021/03/10 10:23:05;;;;;;;30.83;21.77;;;9.10;99.90;;;;;;5045365;28;20458;-71
2021/03/10 10:25:50;;;;;;;42.63;25.67;;;9.20;99.90;;;;;;5047373;28;20418;-71
2021/03/10 10:28:35;;;;;;;43.50;26.43;;;9.30;99.90;;;;;;5044939;28;20454;-71
2021/03/10 10:31:21;;;;;;;42.37;26.60;;;9.20;99.90;;;;;;5043553;28;20475;-71
2021/03/10 10:34:06;;;;;;;41.00;26.47;;;9.20;99.90;;;;;;5044724;28;20509;-70
2021/03/10 10:36:51;;;;;;;42.20;27.47;;;9.30;99.90;;;;;;5049072;28;20466;-73
2021/03/10 10:39:36;;;;;;;40.13;27.20;;;9.20;99.90;;;;;;5044712;28;20451;-72
2021/03/10 10:42:21;;;;;;;42.20;27.90;;;9.30;99.90;;;;;;5051013;28;20422;-72
2021/03/10 10:45:09;;;;;;;47.17;30.07;;;9.20;99.90;;;;;;5048365;28;20434;-71
2021/03/10 10:47:55;;;;;;;45.10;28.33;;;9.10;99.90;;;;;;5053568;28;20543;-70
2021/03/10 10:50:40;;;;;;;40.00;25.97;;;9.10;99.90;;;;;;5045819;28;20444;-70
2021/03/10 10:53:25;;;;;;;45.30;26.33;;;9.20;99.90;;;;;;5046641;28;20497;-70
2021/03/10 10:56:10;;;;;;;38.73;26.10;;;9.20;99.90;;;;;;5044165;28;20881;-69
2021/03/10 10:58:55;;;;;;;35.23;24.30;;;9.30;99.90;;;;;;5048730;28;20444;-70
2021/03/10 11:01:40;;;;;;;37.33;24.33;;;9.20;99.90;;;;;;5047116;28;20447;-70
2021/03/10 11:04:26;;;;;;;35.47;24.50;;;9.30;99.90;;;;;;5043332;28;20441;-70
2021/03/10 11:07:11;;;;;;;43.23;23.63;;;9.40;99.90;;;;;;5042656;28;20517;-69
2021/03/10 11:09:56;;;;;;;37.80;23.50;;;9.30;99.90;;;;;;5046875;28;20444;-70
2021/03/10 11:12:41;;;;;;;31.43;21.40;;;9.40;99.90;;;;;;5047255;28;20422;-72
2021/03/10 11:15:26;;;;;;;40.00;23.87;;;9.40;99.90;;;;;;5046231;28;21086;-70
2021/03/10 11:18:12;;;;;;;34.77;21.50;;;9.50;99.90;;;;;;5043439;28;20499;-70
2021/03/10 11:20:58;;;;;;;31.93;20.73;;;9.60;99.90;;;;;;5044735;28;20502;-70
2021/03/10 11:23:43;;;;;;;32.80;19.53;;;9.60;99.90;;;;;;5045460;28;20474;-70
2021/03/10 11:26:28;;;;;;;34.00;20.13;;;9.60;99.90;;;;;;5046838;28;20586;-70
2021/03/10 11:29:13;;;;;;;30.60;20.33;;;9.60;99.90;;;;;;5043914;28;20595;-70
2021/03/10 11:31:58;;;;;;;27.43;18.90;;;9.70;99.90;;;;;;5042095;28;20443;-69
2021/03/10 11:34:43;;;;;;;33.30;21.00;;;9.70;99.90;;;;;;5038927;28;20446;-72
2021/03/10 11:37:29;;;;;;;27.10;17.90;;;9.80;99.90;;;;;;5044099;28;20864;-72
2021/03/10 11:40:15;;;;;;;27.30;18.90;;;9.80;99.90;;;;;;5041326;28;20464;-72
2021/03/10 11:43:00;;;;;;;26.53;16.83;;;9.90;99.90;;;;;;5043160;28;20421;-73
2021/03/10 11:45:45;;;;;;;29.20;16.77;;;9.90;99.90;;;;;;5039942;28;20490;-72
2021/03/10 11:48:30;;;;;;;27.30;15.97;;;9.90;99.90;;;;;;5036434;28;20494;-72
2021/03/10 11:51:15;;;;;;;27.67;17.23;;;10.10;99.90;;;;;;5048168;28;20510;-72
2021/03/10 11:54:02;;;;;;;28.17;17.20;;;10.10;99.90;;;;;;5044017;28;20546;-72
2021/03/10 11:56:47;;;;;;;23.70;17.67;;;10.20;99.90;;;;;;5044051;28;20898;-72
2021/03/10 11:59:32;;;;;;;24.47;15.80;;;10.50;99.90;;;;;;5041695;28;20455;-72
2021/03/10 12:02:17;;;;;;;24.23;15.20;;;10.80;98.90;;;;;;5042622;28;20454;-71
2021/03/10 12:05:03;;;;;;;27.90;17.07;;;10.70;94.50;;;;;;5046359;28;20461;-71
2021/03/10 12:07:49;;;;;;;23.50;16.20;;;10.90;95.00;;;;;;5042275;28;20467;-72
2021/03/10 12:10:39;;;;;;;23.30;15.30;;;11.10;94.60;;;;;;5045783;28;20447;-71
2021/03/10 12:13:25;;;;;;;19.50;13.80;;;11.20;92.20;;;;;;5041762;28;20463;-72
2021/03/10 12:16:11;;;;;;;21.30;14.80;;;11.30;90.30;;;;;;5045628;28;20572;-72
2021/03/10 12:18:56;;;;;;;21.50;14.73;;;11.30;85.80;;;;;;5048633;28;21073;-72
2021/03/10 12:21:41;;;;;;;23.70;15.43;;;11.40;82.90;;;;;;5046607;28;20928;-73
2021/03/10 12:24:26;;;;;;;23.80;14.27;;;11.40;82.70;;;;;;5046041;28;21268;-73
2021/03/10 12:27:12;;;;;;;27.73;15.70;;;11.20;80.40;;;;;;5046473;28;20472;-73
2021/03/10 12:29:58;;;;;;;21.00;14.07;;;11.10;82.60;;;;;;5047708;28;20486;-71
2021/03/10 12:32:43;;;;;;;19.53;12.40;;;11.20;78.60;;;;;;5044507;28;21049;-72
2021/03/10 12:35:29;;;;;;;19.37;11.70;;;11.30;75.60;;;;;;5044832;28;20552;-70
2021/03/10 12:38:14;;;;;;;20.33;11.90;;;11.50;76.00;;;;;;5050957;28;20457;-71
2021/03/10 12:40:59;;;;;;;15.83;11.07;;;11.60;72.10;;;;;;5056972;28;20860;-72
2021/03/10 12:43:45;;;;;;;16.60;13.20;;;11.50;62.90;;;;;;5054168;28;20909;-74
2021/03/10 12:46:31;;;;;;;22.57;12.77;;;11.40;64.90;;;;;;5044193;28;20448;-73
2021/03/10 12:49:17;;;;;;;16.17;11.37;;;11.50;65.40;;;;;;5041632;28;21404;-73
2021/03/10 12:52:02;;;;;;;18.90;12.57;;;11.50;65.20;;;;;;5044665;28;20988;-73
2021/03/10 12:54:47;;;;;;;23.07;13.90;;;11.70;67.60;;;;;;5036741;28;20446;-73
2021/03/10 12:57:32;;;;;;;24.00;13.53;;;11.50;64.20;;;;;;5033791;28;20465;-73
2021/03/10 13:00:20;;;;;;;19.43;13.80;;;11.30;68.60;;;;;;5037757;28;20454;-72
2021/03/10 13:03:06;;;;;;;20.17;13.50;;;11.20;69.30;;;;;;5059842;28;20431;-72
2021/03/10 13:05:51;;;;;;;19.50;13.07;;;10.90;68.40;;;;;;5055171;28;20486;-73
2021/03/10 13:08:36;;;;;;;17.33;12.80;;;10.80;71.30;;;;;;5040324;28;20529;-72
2021/03/10 13:11:21;;;;;;;22.17;14.10;;;10.90;72.70;;;;;;5049506;28;20459;-73
2021/03/10 13:14:07;;;;;;;20.93;13.90;;;10.90;71.10;;;;;;5047324;28;20814;-73
2021/03/10 13:16:53;;;;;;;23.67;15.93;;;10.90;72.40;;;;;;5050168;28;20446;-73
2021/03/10 13:19:38;;;;;;;20.50;14.00;;;10.90;72.40;;;;;;5044466;28;20532;-73
2021/03/10 13:22:23;;;;;;;19.80;13.50;;;10.90;70.30;;;;;;5053186;28;21019;-73
2021/03/10 13:25:09;;;;;;;22.70;13.17;;;11.20;72.10;;;;;;5040406;28;20464;-71
2021/03/10 13:27:55;;;;;;;18.10;12.20;;;11.50;71.40;;;;;;5040178;28;20489;-71
2021/03/10 13:30:40;;;;;;;17.87;12.27;;;11.60;64.80;;;;;;5046646;28;20883;-73
2021/03/10 13:33:25;;;;;;;19.40;12.63;;;11.50;63.40;;;;;;5042263;28;20933;-72
2021/03/10 13:36:11;;;;;;;17.37;11.87;;;11.40;65.40;;;;;;5044462;28;20557;-73
2021/03/10 13:38:56;;;;;;;22.17;14.37;;;11.30;65.90;;;;;;5044879;28;20439;-72
2021/03/10 13:41:41;;;;;;;24.00;14.47;;;11.20;67.40;;;;;;5047189;28;20556;-71
2021/03/10 13:44:26;;;;;;;21.57;14.97;;;11.10;67.30;;;;;;5044834;28;20994;-73
2021/03/10 13:47:11;;;;;;;20.03;13.23;;;11.00;68.10;;;;;;5047829;28;20577;-73
2021/03/10 13:49:57;;;;;;;22.37;14.80;;;11.10;69.60;;;;;;5047927;28;20479;-73
2021/03/10 13:52:41;;;;;;;23.80;15.63;;;11.10;69.10;;;;;;5046560;28;20418;-72
2021/03/10 13:55:27;;;;;;;24.00;15.00;;;11.10;69.30;;;;;;5043612;28;20550;-73
2021/03/10 13:58:12;;;;;;;21.67;13.87;;;11.00;69.30;;;;;;5048901;28;20463;-72
2021/03/10 14:00:58;;;;;;;24.80;16.37;;;11.00;72.00;;;;;;5041776;28;21033;-72
2021/03/10 14:03:43;;;;;;;27.17;15.27;;;10.70;68.70;;;;;;5040411;28;20506;-73
2021/03/10 14:06:29;;;;;;;25.80;16.00;;;10.70;70.90;;;;;;5041717;28;20442;-70
2021/03/10 14:09:14;;;;;;;24.00;16.30;;;10.70;71.70;;;;;;5044294;28;20475;-72
2021/03/10 14:11:59;;;;;;;27.53;15.43;;;10.70;71.70;;;;;;5045795;28;20457;-72